Time;durP1;ratioP1;P1;durP2;ratioP2;P2;SDS_P1;SDS_P2;PMS_P1;PMS_P2;Temp;Humidity;BMP_temperature;BMP_pressure;BME280_temperature;BME280_humidity;BME280_pressure;Samples;Min_cycle;Max_cycle;Signal;HPM_P1;HPM_P2
2021/01/29 00:01:57;;;;;;;1.73;1.13;;;9.70;99.90;;;;;;5069398;28;20624;-84
2021/01/29 00:04:24;;;;;;;0.93;0.87;;;9.60;99.90;;;;;;5057218;28;21278;-84
2021/01/29 00:06:51;;;;;;;1.30;1.20;;;9.60;99.90;;;;;;5049609;28;21037;-83
2021/01/29 00:09:19;;;;;;;0.90;0.90;;;9.60;99.90;;;;;;5062631;28;21026;-84
2021/01/29 00:11:46;;;;;;;0.97;0.97;;;9.50;99.90;;;;;;5058344;28;21028;-84
2021/01/29 00:14:12;;;;;;;1.13;0.90;;;9.40;99.90;;;;;;5060820;28;20732;-84
2021/01/29 00:16:39;;;;;;;1.53;0.97;;;9.30;99.90;;;;;;5059465;28;20649;-84
2021/01/29 00:19:05;;;;;;;1.07;0.97;;;9.40;99.90;;;;;;5054586;28;21233;-84
2021/01/29 00:21:31;;;;;;;1.17;1.07;;;9.50;99.90;;;;;;5048960;28;20609;-84
2021/01/29 00:23:59;;;;;;;1.07;0.97;;;9.30;99.90;;;;;;5050331;28;20675;-84
2021/01/29 00:26:25;;;;;;;0.97;0.80;;;9.20;99.90;;;;;;5049816;28;20618;-84
2021/01/29 00:28:52;;;;;;;1.70;0.67;;;9.10;99.90;;;;;;5049616;28;20634;-84
2021/01/29 00:31:18;;;;;;;1.13;0.87;;;9.10;99.90;;;;;;5048920;28;20649;-83
2021/01/29 00:33:44;;;;;;;0.60;0.60;;;9.20;99.90;;;;;;5053549;28;20673;-84
2021/01/29 00:36:11;;;;;;;0.50;0.50;;;9.20;99.90;;;;;;5058164;28;21016;-84
2021/01/29 00:38:38;;;;;;;0.60;0.60;;;9.20;99.90;;;;;;5066195;28;20657;-84
2021/01/29 00:41:05;;;;;;;1.15;0.90;;;9.20;99.90;;;;;;5056924;28;20668;-84
2021/01/29 00:43:32;;;;;;;1.23;0.83;;;9.20;99.90;;;;;;5055446;28;20227;-84
2021/01/29 00:45:58;;;;;;;1.07;1.07;;;9.20;99.90;;;;;;5052666;28;21200;-84
2021/01/29 00:48:24;;;;;;;1.00;1.00;;;9.20;99.90;;;;;;5053486;28;20616;-84
2021/01/29 00:50:51;;;;;;;1.20;1.10;;;9.30;99.90;;;;;;5062326;28;20647;-84
2021/01/29 00:53:17;;;;;;;1.93;1.20;;;9.30;99.90;;;;;;5053321;28;20735;-83
2021/01/29 00:55:44;;;;;;;1.03;1.00;;;9.40;99.90;;;;;;5053926;28;20645;-84
2021/01/29 00:58:11;;;;;;;1.40;1.30;;;9.30;99.90;;;;;;5054857;28;20661;-84
2021/01/29 01:00:37;;;;;;;1.00;0.90;;;9.30;99.90;;;;;;5070611;28;20621;-84
2021/01/29 01:03:05;;;;;;;1.80;0.73;;;9.40;99.90;;;;;;5052685;28;20640;-83
2021/01/29 01:05:32;;;;;;;2.17;1.23;;;9.40;99.90;;;;;;5070282;28;20616;-83
2021/01/29 01:07:59;;;;;;;2.00;1.60;;;9.40;99.90;;;;;;5068288;28;21262;-83
2021/01/29 01:10:25;;;;;;;1.60;1.50;;;9.40;99.90;;;;;;5053182;28;20645;-83
2021/01/29 01:12:52;;;;;;;2.23;1.87;;;9.40;99.90;;;;;;5053450;28;20693;-83
2021/01/29 01:15:22;;;;;;;3.67;3.40;;;9.40;99.90;;;;;;5057194;28;20644;-82
2021/01/29 01:17:49;;;;;;;4.83;3.07;;;9.40;99.90;;;;;;5070360;28;20636;-83
2021/01/29 01:20:24;;;;;;;3.20;2.90;;;9.40;99.90;;;;;;5052471;28;21007;-83
2021/01/29 01:22:51;;;;;;;2.73;2.53;;;9.50;99.90;;;;;;5054347;28;20199;-83
2021/01/29 01:25:17;;;;;;;1.80;1.70;;;9.50;99.90;;;;;;5070044;28;20617;-83
2021/01/29 01:27:44;;;;;;;1.50;1.40;;;9.40;99.90;;;;;;5071315;28;20618;-83
2021/01/29 01:30:14;;;;;;;1.77;1.67;;;9.40;99.90;;;;;;5059306;28;20767;-83
2021/01/29 01:32:42;;;;;;;1.70;1.60;;;9.50;99.90;;;;;;5059562;28;20708;-83
2021/01/29 01:35:10;;;;;;;1.73;1.63;;;9.50;99.90;;;;;;5052929;28;20653;-84
2021/01/29 01:37:37;;;;;;;3.20;2.30;;;9.40;99.90;;;;;;5056309;28;20718;-84
2021/01/29 01:40:05;;;;;;;1.55;1.45;;;9.40;99.90;;;;;;5054333;28;20762;-84
2021/01/29 01:42:31;;;;;;;2.33;2.00;;;9.50;99.90;;;;;;5055717;28;20187;-83
2021/01/29 01:44:58;;;;;;;1.73;1.63;;;9.40;99.90;;;;;;5054541;28;21051;-83
2021/01/29 01:47:30;;;;;;;2.10;1.90;;;9.50;99.90;;;;;;5069270;28;20625;-83
2021/01/29 01:50:04;;;;;;;1.57;1.47;;;9.40;99.90;;;;;;5062717;28;20629;-83
2021/01/29 01:52:34;;;;;;;2.20;2.03;;;9.30;99.90;;;;;;5071619;28;20656;-83
2021/01/29 01:55:06;;;;;;;2.83;2.30;;;9.40;99.90;;;;;;5057832;28;21015;-84
2021/01/29 01:57:34;;;;;;;3.63;2.37;;;9.30;99.90;;;;;;5064775;28;20622;-83
2021/01/29 02:00:06;;;;;;;4.37;3.97;;;9.30;99.90;;;;;;5055903;28;20676;-83
2021/01/29 02:02:37;;;;;;;3.40;3.00;;;9.30;99.90;;;;;;5071577;28;20625;-84
2021/01/29 02:05:10;;;;;;;3.67;3.37;;;9.30;99.90;;;;;;5059442;28;20622;-83
2021/01/29 02:07:43;;;;;;;3.13;2.93;;;9.20;99.90;;;;;;5054199;28;20626;-83
2021/01/29 02:10:13;;;;;;;2.90;2.70;;;9.30;99.90;;;;;;5062811;28;20708;-84
2021/01/29 02:12:42;;;;;;;3.30;1.80;;;9.30;99.90;;;;;;5056892;28;20670;-84
2021/01/29 02:15:19;;;;;;;1.50;1.40;;;9.30;99.90;;;;;;5061546;28;20715;-84
2021/01/29 02:17:59;;;;;;;1.27;1.17;;;9.30;99.90;;;;;;5064464;28;20663;-84
2021/01/29 02:21:00;;;;;;;1.43;1.30;;;9.20;99.90;;;;;;5070695;28;21094;-84
2021/01/29 02:24:05;;;;;;;8.07;1.37;;;9.10;99.90;;;;;;5072008;28;20686;-84
2021/01/29 02:27:05;;;;;;;2.90;2.63;;;9.00;99.90;;;;;;5063192;28;20630;-84
2021/01/29 02:30:03;;;;;;;1.20;1.10;;;9.00;99.90;;;;;;5066810;28;20692;-84
2021/01/29 02:33:04;;;;;;;1.10;1.00;;;9.10;99.90;;;;;;5048365;28;20753;-84
2021/01/29 02:36:06;;;;;;;1.43;1.20;;;9.00;99.90;;;;;;5058637;28;20227;-85
2021/01/29 02:39:12;;;;;;;1.40;0.70;;;9.10;99.90;;;;;;5069982;28;20728;-85
2021/01/29 02:42:01;;;;;;;1.08;1.00;;;9.00;99.90;;;;;;5051602;28;20644;-83
2021/01/29 02:44:54;;;;;;;0.90;0.90;;;8.90;99.90;;;;;;5056817;28;20211;-84
2021/01/29 02:47:26;;;;;;;0.77;0.77;;;8.80;99.90;;;;;;5060256;28;20295;-83
2021/01/29 02:50:17;;;;;;;1.48;0.90;;;8.90;99.90;;;;;;5072426;28;20195;-83
2021/01/29 02:53:06;;;;;;;0.97;0.97;;;9.00;99.90;;;;;;5054407;28;20252;-84
2021/01/29 02:55:45;;;;;;;0.70;0.70;;;9.10;99.90;;;;;;5054073;28;20614;-84
2021/01/29 02:58:18;;;;;;;1.50;0.80;;;8.90;99.90;;;;;;5062967;28;20618;-83
2021/01/29 03:00:51;;;;;;;0.70;0.70;;;8.90;99.90;;;;;;5072688;28;20229;-83
2021/01/29 03:03:22;;;;;;;1.07;0.80;;;8.90;99.90;;;;;;5056326;28;20630;-84
2021/01/29 03:05:54;;;;;;;1.00;0.90;;;9.00;99.90;;;;;;5054052;28;20618;-83
2021/01/29 03:08:24;;;;;;;1.20;1.10;;;9.10;99.90;;;;;;5069299;28;20652;-83
2021/01/29 03:10:57;;;;;;;0.87;0.87;;;9.10;99.90;;;;;;5054688;28;21187;-83
2021/01/29 03:13:29;;;;;;;1.17;0.80;;;9.00;99.90;;;;;;5071298;28;20645;-84
2021/01/29 03:16:01;;;;;;;0.88;0.85;;;8.90;99.90;;;;;;5071899;28;20663;-84
2021/01/29 03:18:34;;;;;;;6.07;0.97;;;8.90;99.90;;;;;;5064898;28;20436;-84
2021/01/29 03:21:05;;;;;;;1.00;0.80;;;9.00;99.90;;;;;;5052784;28;20622;-83
2021/01/29 03:23:37;;;;;;;0.87;0.77;;;9.00;99.90;;;;;;5053242;28;20211;-82
2021/01/29 03:26:08;;;;;;;0.70;0.70;;;9.00;99.90;;;;;;5051839;28;20672;-83
2021/01/29 03:28:41;;;;;;;0.97;0.97;;;8.90;99.90;;;;;;5062958;28;20610;-83
2021/01/29 03:31:10;;;;;;;0.80;0.80;;;8.70;99.90;;;;;;5051887;28;20598;-83
2021/01/29 03:33:38;;;;;;;0.80;0.80;;;8.80;99.90;;;;;;5069633;28;20214;-84
2021/01/29 03:36:07;;;;;;;0.77;0.73;;;8.80;99.90;;;;;;5065346;28;20675;-84
2021/01/29 03:38:39;;;;;;;0.80;0.80;;;8.80;99.90;;;;;;5069241;28;20613;-83
2021/01/29 03:41:19;;;;;;;1.08;0.90;;;8.90;99.90;;;;;;5066593;28;20245;-83
2021/01/29 03:43:59;;;;;;;1.23;1.05;;;8.90;99.90;;;;;;5056740;28;20203;-83
2021/01/29 03:46:37;;;;;;;1.23;1.13;;;8.90;99.90;;;;;;5071373;28;20210;-84
2021/01/29 03:49:16;;;;;;;1.45;1.35;;;8.90;99.90;;;;;;5051375;28;20614;-83
2021/01/29 03:52:05;;;;;;;0.50;0.50;;;8.90;99.90;;;;;;5061508;28;20226;-83
2021/01/29 03:54:39;;;;;;;1.20;1.10;;;9.00;99.90;;;;;;5062779;28;20227;-84
2021/01/29 03:57:17;;;;;;;1.30;0.80;;;9.00;99.90;;;;;;5059863;28;20196;-84
2021/01/29 03:59:56;;;;;;;1.25;0.80;;;8.80;99.90;;;;;;5066523;28;21221;-84
2021/01/29 04:02:30;;;;;;;0.65;0.60;;;8.80;99.90;;;;;;5055895;28;20565;-84
2021/01/29 04:05:06;;;;;;;0.70;0.70;;;8.80;99.90;;;;;;5065327;28;20656;-84
2021/01/29 04:07:39;;;;;;;0.77;0.77;;;8.90;99.90;;;;;;5060268;28;20627;-85
2021/01/29 04:10:10;;;;;;;0.57;0.57;;;8.80;99.90;;;;;;5053139;28;20298;-84
2021/01/29 04:12:41;;;;;;;1.40;1.05;;;8.80;99.90;;;;;;5057554;28;20220;-84
2021/01/29 04:15:15;;;;;;;0.60;0.60;;;8.80;99.90;;;;;;5072283;28;20206;-84
2021/01/29 04:17:49;;;;;;;1.75;0.70;;;8.70;99.90;;;;;;5072966;28;20683;-85
2021/01/29 04:20:22;;;;;;;1.05;0.73;;;8.70;99.90;;;;;;5055749;28;20195;-84
2021/01/29 04:22:50;;;;;;;0.60;0.60;;;8.80;99.90;;;;;;5072545;28;20191;-85
2021/01/29 04:25:23;;;;;;;0.50;0.50;;;8.80;99.90;;;;;;5061766;28;20610;-84
2021/01/29 04:27:55;;;;;;;0.75;0.75;;;8.80;99.90;;;;;;5061460;28;20199;-84
2021/01/29 04:30:26;;;;;;;4.85;0.85;;;8.70;99.90;;;;;;5056133;28;20257;-84
2021/01/29 04:33:00;;;;;;;0.80;0.63;;;8.70;99.90;;;;;;5055555;28;20234;-84
2021/01/29 04:35:29;;;;;;;1.30;0.70;;;8.80;99.90;;;;;;5056576;28;20562;-84
2021/01/29 04:38:08;;;;;;;0.68;0.60;;;8.80;99.90;;;;;;5054453;28;20200;-84
2021/01/29 04:40:42;;;;;;;2.90;1.02;;;8.70;99.90;;;;;;5052840;28;20199;-83
2021/01/29 04:43:25;;;;;;;0.68;0.68;;;8.70;99.90;;;;;;5054875;28;20241;-82
2021/01/29 04:46:12;;;;;;;0.70;0.70;;;8.70;99.90;;;;;;5074485;28;20669;-84
2021/01/29 04:48:45;;;;;;;0.60;0.60;;;8.80;99.90;;;;;;5072344;28;20719;-83
2021/01/29 04:51:46;;;;;;;3.00;0.50;;;8.70;99.90;;;;;;5072835;28;20592;-84
2021/01/29 04:54:44;;;;;;;0.43;0.43;;;8.70;99.90;;;;;;5018578;28;20239;-84
2021/01/29 04:57:47;;;;;;;0.70;0.70;;;8.60;99.90;;;;;;5054855;28;20658;-84
2021/01/29 05:00:41;;;;;;;0.60;0.60;;;8.50;99.90;;;;;;5056175;28;20215;-84
2021/01/29 05:03:33;;;;;;;0.63;0.60;;;8.60;99.90;;;;;;5037763;28;20216;-84
2021/01/29 05:06:19;;;;;;;0.75;0.75;;;8.50;99.90;;;;;;5055203;28;20203;-84
2021/01/29 05:09:15;;;;;;;0.77;0.50;;;8.40;99.90;;;;;;5058531;28;20550;-84
2021/01/29 05:12:17;;;;;;;1.08;1.00;;;8.30;99.90;;;;;;5027471;28;20214;-84
2021/01/29 05:15:24;;;;;;;0.57;0.52;;;8.30;99.90;;;;;;5066760;28;20203;-83
2021/01/29 05:18:31;;;;;;;0.50;0.50;;;8.30;99.90;;;;;;5038369;28;20579;-85
2021/01/29 05:21:15;;;;;;;1.10;0.60;;;8.40;99.90;;;;;;5011247;28;20228;-83
2021/01/29 05:24:04;;;;;;;1.20;0.50;;;8.30;99.90;;;;;;5022044;28;20198;-82
2021/01/29 05:26:51;;;;;;;0.55;0.45;;;8.30;99.90;;;;;;5040975;28;20216;-84
2021/01/29 05:29:41;;;;;;;0.73;0.43;;;8.30;99.90;;;;;;5059218;28;20226;-84
2021/01/29 05:32:36;;;;;;;0.95;0.60;;;8.30;99.90;;;;;;5055457;28;20211;-85
2021/01/29 05:35:20;;;;;;;2.15;0.40;;;8.30;99.90;;;;;;5051270;28;20550;-85
2021/01/29 05:38:15;;;;;;;0.55;0.55;;;8.30;99.90;;;;;;5065016;28;20210;-87
2021/01/29 05:41:05;;;;;;;0.57;0.57;;;8.30;99.90;;;;;;5054338;28;20199;-86
2021/01/29 05:44:07;;;;;;;0.57;0.55;;;8.40;99.90;;;;;;5063144;28;20554;-85
2021/01/29 05:46:41;;;;;;;2.25;1.00;;;8.30;99.90;;;;;;5045968;28;20222;-86
2021/01/29 05:49:27;;;;;;;0.70;0.60;;;8.30;99.90;;;;;;5063721;28;20261;-86
2021/01/29 05:52:11;;;;;;;0.68;0.68;;;8.20;99.90;;;;;;5053198;28;20196;-85
2021/01/29 05:55:07;;;;;;;1.67;0.60;;;8.10;99.90;;;;;;5054604;28;20223;-85
2021/01/29 05:58:01;;;;;;;0.73;0.65;;;8.10;99.90;;;;;;5051023;28;20710;-85
2021/01/29 06:00:42;;;;;;;0.60;0.60;;;8.00;99.90;;;;;;5057387;28;20215;-85
2021/01/29 06:03:26;;;;;;;0.50;0.50;;;8.00;99.90;;;;;;5071306;28;20207;-87
2021/01/29 06:06:31;;;;;;;1.27;0.70;;;7.90;99.90;;;;;;5052783;28;20695;-86
2021/01/29 06:09:11;;;;;;;0.70;0.65;;;7.90;99.90;;;;;;5051868;28;20199;-87
2021/01/29 06:11:52;;;;;;;4.30;0.70;;;8.10;99.90;;;;;;5059852;28;20195;-85
2021/01/29 06:14:58;;;;;;;0.40;0.40;;;8.00;99.90;;;;;;5070269;28;20213;-85
2021/01/29 06:18:04;;;;;;;0.85;0.50;;;7.90;99.90;;;;;;5069407;28;20226;-85
2021/01/29 06:21:10;;;;;;;1.15;0.60;;;7.90;99.90;;;;;;5052664;28;20573;-86
2021/01/29 06:24:09;;;;;;;1.30;0.75;;;7.90;99.90;;;;;;5053213;28;20196;-87
2021/01/29 06:27:12;;;;;;;2.00;0.90;;;7.90;99.90;;;;;;5052537;28;20223;-86
2021/01/29 06:30:05;;;;;;;2.28;1.25;;;8.00;99.90;;;;;;4993635;28;20302;-87
2021/01/29 06:33:11;;;;;;;0.80;0.80;;;8.10;99.90;;;;;;5052926;28;20225;-89
2021/01/29 06:35:55;;;;;;;0.98;0.70;;;8.00;99.90;;;;;;5054004;28;20195;-90
2021/01/29 06:38:45;;;;;;;1.08;0.98;;;8.00;99.90;;;;;;5067554;28;20218;-87
2021/01/29 06:41:48;;;;;;;0.95;0.70;;;8.00;99.90;;;;;;5064409;28;20566;-89
2021/01/29 06:44:28;;;;;;;0.60;0.60;;;8.00;99.90;;;;;;5021879;28;20212;-90
2021/01/29 06:47:07;;;;;;;0.50;0.50;;;8.10;99.90;;;;;;5064089;28;20229;-87
2021/01/29 06:50:16;;;;;;;0.88;0.68;;;8.10;99.90;;;;;;5056795;28;20206;-90
2021/01/29 06:53:13;;;;;;;1.75;0.50;;;8.10;99.90;;;;;;5014641;28;20190;-89
2021/01/29 06:56:05;;;;;;;0.80;0.40;;;8.20;99.90;;;;;;5015128;28;20209;-88
2021/01/29 06:58:58;;;;;;;0.63;0.40;;;8.10;99.90;;;;;;5048838;28;20216;-88
2021/01/29 07:01:49;;;;;;;0.40;0.30;;;8.10;99.90;;;;;;5066557;28;20196;-87
2021/01/29 07:04:57;;;;;;;0.80;0.60;;;8.10;99.90;;;;;;5062523;28;20864;-88
2021/01/29 07:07:36;;;;;;;0.98;0.50;;;8.10;99.90;;;;;;5018552;28;20226;-86
2021/01/29 07:10:23;;;;;;;0.40;0.40;;;8.00;99.90;;;;;;5051065;28;20199;-88
2021/01/29 07:13:04;;;;;;;0.82;0.32;;;8.00;99.90;;;;;;5066081;28;20648;-86
2021/01/29 07:15:40;;;;;;;0.60;0.50;;;8.00;99.90;;;;;;5066012;28;20202;-86
2021/01/29 07:18:20;;;;;;;0.95;0.47;;;8.00;99.90;;;;;;5074505;28;20187;-87
2021/01/29 07:21:24;;;;;;;1.30;0.70;;;8.00;99.90;;;;;;5070535;28;20194;-87
2021/01/29 07:24:11;;;;;;;0.60;0.57;;;8.00;99.90;;;;;;5054656;28;20203;-88
2021/01/29 07:26:51;;;;;;;0.60;0.60;;;8.10;99.90;;;;;;5063086;28;20229;-88
2021/01/29 07:29:38;;;;;;;0.50;0.50;;;8.10;99.90;;;;;;5066887;28;20250;-88
2021/01/29 07:32:13;;;;;;;0.60;0.60;;;8.20;99.90;;;;;;5073336;28;20203;-89
2021/01/29 07:34:50;;;;;;;0.60;0.50;;;8.10;99.90;;;;;;5060259;28;20571;-87
2021/01/29 07:37:40;;;;;;;0.70;0.50;;;8.10;99.90;;;;;;5048507;28;20306;-87
2021/01/29 07:40:36;;;;;;;1.40;0.57;;;8.20;99.90;;;;;;5062080;28;20261;-88
2021/01/29 07:43:25;;;;;;;0.50;0.50;;;8.20;99.90;;;;;;5068432;28;20211;-84
2021/01/29 07:46:13;;;;;;;0.43;0.40;;;8.00;99.90;;;;;;5060597;28;20200;-85
2021/01/29 07:48:52;;;;;;;0.40;0.40;;;8.30;99.90;;;;;;5067474;28;20205;-84
2021/01/29 07:51:31;;;;;;;0.70;0.70;;;8.30;99.90;;;;;;5058808;28;20656;-85
2021/01/29 07:54:27;;;;;;;1.10;1.10;;;8.40;99.90;;;;;;5069023;28;20215;-87
2021/01/29 07:57:06;;;;;;;4.03;1.00;;;8.40;99.90;;;;;;5069936;28;20589;-86
2021/01/29 08:00:13;;;;;;;0.50;0.50;;;8.40;99.90;;;;;;5058892;28;20253;-86
2021/01/29 08:03:06;;;;;;;1.48;0.80;;;8.30;99.90;;;;;;5037557;28;20740;-85
2021/01/29 08:05:38;;;;;;;0.80;0.80;;;8.50;99.90;;;;;;5056287;28;20195;-84
2021/01/29 08:08:10;;;;;;;0.52;0.50;;;8.50;99.90;;;;;;5065830;28;20205;-85
2021/01/29 08:10:40;;;;;;;0.73;0.73;;;8.50;99.90;;;;;;5049564;28;20294;-84
2021/01/29 08:13:15;;;;;;;3.38;1.20;;;8.50;99.90;;;;;;5057593;28;20238;-86
2021/01/29 08:15:51;;;;;;;3.60;1.07;;;8.50;99.90;;;;;;5059689;28;20230;-84
2021/01/29 08:18:46;;;;;;;1.55;0.90;;;8.60;99.90;;;;;;5049936;28;20762;-83
2021/01/29 08:21:52;;;;;;;1.25;1.05;;;8.70;99.90;;;;;;5054625;28;20218;-83
2021/01/29 08:24:39;;;;;;;0.60;0.60;;;8.70;99.90;;;;;;5049716;28;20215;-85
2021/01/29 08:27:42;;;;;;;2.60;0.82;;;8.70;99.90;;;;;;5049886;28;20206;-85
2021/01/29 08:30:38;;;;;;;0.77;0.60;;;8.70;99.90;;;;;;5063809;28;20624;-83
2021/01/29 08:33:37;;;;;;;0.60;0.60;;;8.70;99.90;;;;;;5057851;28;20741;-82
2021/01/29 08:36:39;;;;;;;0.93;0.70;;;8.80;99.90;;;;;;5053160;28;20202;-83
2021/01/29 08:39:15;;;;;;;0.63;0.63;;;8.90;99.90;;;;;;5041733;28;20286;-83
2021/01/29 08:41:54;;;;;;;0.60;0.60;;;8.90;99.90;;;;;;5069213;28;20237;-81
2021/01/29 08:44:59;;;;;;;0.73;0.60;;;8.90;99.90;;;;;;5063214;28;20617;-81
2021/01/29 08:47:41;;;;;;;1.08;0.93;;;8.80;99.90;;;;;;5060944;28;20733;-82
2021/01/29 08:50:38;;;;;;;0.57;0.57;;;8.80;99.90;;;;;;5049979;28;20226;-83
2021/01/29 08:54:02;;;;;;;0.85;0.80;;;8.70;99.90;;;;;;5059315;28;20675;-84
2021/01/29 08:56:38;;;;;;;1.23;0.80;;;8.80;99.90;;;;;;5052012;28;20200;-82
2021/01/29 08:59:07;;;;;;;2.00;0.43;;;8.90;99.90;;;;;;5052775;28;20657;-81
2021/01/29 09:01:40;;;;;;;0.93;0.60;;;8.90;99.90;;;;;;5065246;28;20859;-81
2021/01/29 09:04:18;;;;;;;1.13;1.02;;;9.00;99.90;;;;;;5062450;28;20604;-82
2021/01/29 09:06:46;;;;;;;1.30;1.20;;;9.00;99.90;;;;;;5073246;28;20191;-82
2021/01/29 09:09:18;;;;;;;0.40;0.30;;;9.00;99.90;;;;;;5053757;28;20257;-82
2021/01/29 09:11:48;;;;;;;0.40;0.40;;;9.00;99.90;;;;;;5069177;28;20593;-80
2021/01/29 09:14:23;;;;;;;3.17;0.50;;;8.90;99.90;;;;;;5072667;28;20230;-80
2021/01/29 09:16:57;;;;;;;0.80;0.40;;;8.90;99.90;;;;;;5059218;28;20192;-84
2021/01/29 09:19:25;;;;;;;0.50;0.40;;;8.90;99.90;;;;;;5054593;28;20620;-81
2021/01/29 09:22:06;;;;;;;0.40;0.40;;;8.90;99.90;;;;;;5058251;28;20953;-80
2021/01/29 09:24:40;;;;;;;0.50;0.50;;;8.80;99.90;;;;;;5067077;28;20627;-80
2021/01/29 09:27:41;;;;;;;0.60;0.60;;;8.80;99.90;;;;;;5070020;28;20814;-80
2021/01/29 09:30:17;;;;;;;1.83;1.63;;;8.80;99.90;;;;;;5061386;28;20680;-81
2021/01/29 09:32:53;;;;;;;1.17;0.40;;;8.90;99.90;;;;;;5052654;28;20207;-80
2021/01/29 09:35:33;;;;;;;0.80;0.80;;;9.10;99.90;;;;;;5052520;28;20211;-80
2021/01/29 09:38:02;;;;;;;1.67;0.50;;;9.20;99.90;;;;;;5052502;28;20618;-81
2021/01/29 09:40:33;;;;;;;1.03;0.60;;;9.30;99.90;;;;;;5052952;28;20266;-80
2021/01/29 09:43:12;;;;;;;3.03;0.70;;;9.30;99.60;;;;;;5052544;28;20618;-80
2021/01/29 09:45:41;;;;;;;1.80;0.80;;;9.40;99.90;;;;;;5052744;28;20573;-80
2021/01/29 09:48:13;;;;;;;1.20;0.70;;;9.50;99.30;;;;;;5051963;28;20618;-79
2021/01/29 09:50:42;;;;;;;1.60;0.90;;;9.60;98.40;;;;;;5052300;28;20751;-79
2021/01/29 09:53:21;;;;;;;1.17;0.80;;;9.50;98.30;;;;;;5051423;28;20682;-79
2021/01/29 09:55:55;;;;;;;1.13;0.97;;;9.30;97.60;;;;;;5062935;28;20613;-80
2021/01/29 09:58:30;;;;;;;3.20;1.37;;;9.40;97.40;;;;;;5071312;28;20624;-80
2021/01/29 10:01:02;;;;;;;0.80;0.80;;;9.50;98.00;;;;;;5059247;28;20620;-80
2021/01/29 10:03:34;;;;;;;1.27;0.80;;;9.60;97.40;;;;;;5063900;28;21005;-81
2021/01/29 10:06:05;;;;;;;1.03;0.90;;;9.60;97.30;;;;;;5060030;28;20603;-80
2021/01/29 10:08:35;;;;;;;1.90;1.00;;;9.70;97.60;;;;;;5051540;28;20602;-79
2021/01/29 10:11:04;;;;;;;0.63;0.63;;;9.80;97.50;;;;;;5064142;28;20617;-82
2021/01/29 10:13:49;;;;;;;2.60;1.10;;;9.90;97.70;;;;;;5072191;28;20648;-80
2021/01/29 10:16:25;;;;;;;0.97;0.90;;;10.10;96.30;;;;;;5058426;28;20618;-80
2021/01/29 10:19:01;;;;;;;2.67;1.40;;;10.10;95.80;;;;;;5051227;28;20626;-80
2021/01/29 10:21:44;;;;;;;3.60;1.42;;;10.00;95.80;;;;;;5061660;28;20761;-80
2021/01/29 10:24:17;;;;;;;2.73;0.90;;;9.80;96.90;;;;;;5064729;28;20665;-79
2021/01/29 10:26:54;;;;;;;2.17;0.93;;;9.60;96.50;;;;;;5052170;28;20671;-85
2021/01/29 10:29:23;;;;;;;3.40;0.90;;;9.50;96.50;;;;;;5059396;28;20605;-82
2021/01/29 10:32:02;;;;;;;2.97;1.37;;;9.50;96.00;;;;;;5059698;28;20620;-82
2021/01/29 10:34:35;;;;;;;0.97;0.80;;;9.30;96.10;;;;;;5054403;28;20901;-81
2021/01/29 10:37:17;;;;;;;1.13;0.80;;;9.20;95.60;;;;;;5063039;28;21169;-80
2021/01/29 10:39:55;;;;;;;1.07;0.80;;;9.30;95.10;;;;;;5063598;28;20613;-82
2021/01/29 10:42:27;;;;;;;2.27;0.90;;;9.40;95.40;;;;;;5060425;28;20626;-79
2021/01/29 10:44:55;;;;;;;1.37;1.13;;;9.30;95.80;;;;;;5050846;28;20624;-83
2021/01/29 10:47:32;;;;;;;1.50;0.70;;;9.40;96.30;;;;;;5050829;28;21108;-83
2021/01/29 10:50:10;;;;;;;1.30;1.03;;;9.50;96.50;;;;;;5052146;28;20661;-81
2021/01/29 10:52:41;;;;;;;1.10;0.93;;;9.60;96.10;;;;;;5052850;28;20602;-82
2021/01/29 10:55:19;;;;;;;3.13;0.93;;;9.60;95.30;;;;;;5058614;28;20757;-82
2021/01/29 10:57:56;;;;;;;2.30;1.03;;;9.80;96.10;;;;;;5050970;28;20598;-82
2021/01/29 11:00:25;;;;;;;1.77;1.67;;;9.90;94.80;;;;;;5067414;28;21219;-82
2021/01/29 11:03:00;;;;;;;3.50;1.50;;;9.90;94.60;;;;;;5063808;28;20630;-83
2021/01/29 11:05:29;;;;;;;2.30;1.40;;;10.00;93.60;;;;;;5052443;28;20621;-82
2021/01/29 11:08:05;;;;;;;2.27;1.07;;;10.00;93.60;;;;;;5070274;28;20705;-83
2021/01/29 11:10:33;;;;;;;2.23;1.27;;;10.10;93.00;;;;;;5052857;28;21068;-79
2021/01/29 11:13:05;;;;;;;4.57;1.70;;;10.00;93.00;;;;;;5053427;28;20634;-83
2021/01/29 11:15:38;;;;;;;2.23;2.03;;;10.00;93.20;;;;;;5070729;28;21177;-82
2021/01/29 11:18:13;;;;;;;2.77;1.20;;;10.00;92.70;;;;;;5072225;28;20753;-83
2021/01/29 11:20:42;;;;;;;6.43;1.47;;;10.00;93.20;;;;;;5070868;28;20623;-82
2021/01/29 11:23:24;;;;;;;4.80;1.40;;;10.00;93.30;;;;;;5058324;28;20625;-84
2021/01/29 11:25:59;;;;;;;2.57;1.20;;;9.80;94.20;;;;;;5074578;28;20613;-81
2021/01/29 11:28:43;;;;;;;1.10;1.00;;;9.90;93.70;;;;;;5066739;28;20649;-84
2021/01/29 11:31:16;;;;;;;2.20;1.50;;;10.00;93.30;;;;;;5052612;28;20632;-82
2021/01/29 11:33:46;;;;;;;3.60;1.20;;;9.90;93.90;;;;;;5062955;28;20645;-84
2021/01/29 11:36:26;;;;;;;1.53;1.10;;;9.80;94.30;;;;;;5072847;28;20621;-83
2021/01/29 11:39:09;;;;;;;4.63;1.63;;;9.70;94.00;;;;;;5063573;28;20637;-82
2021/01/29 11:41:51;;;;;;;3.33;0.97;;;9.70;94.40;;;;;;5052837;28;20622;-82
2021/01/29 11:44:26;;;;;;;1.27;0.97;;;9.70;94.20;;;;;;5071824;28;20629;-82
2021/01/29 11:47:01;;;;;;;1.17;1.07;;;9.80;93.60;;;;;;5061955;28;20655;-82
2021/01/29 11:49:32;;;;;;;2.30;1.40;;;9.90;93.80;;;;;;5069896;28;20937;-85
2021/01/29 11:52:17;;;;;;;1.10;1.00;;;9.90;93.90;;;;;;5071651;28;20990;-84
2021/01/29 11:54:51;;;;;;;1.77;1.43;;;9.90;94.00;;;;;;5053439;28;20641;-82
2021/01/29 11:57:24;;;;;;;1.33;0.90;;;10.10;93.40;;;;;;5064638;28;20614;-83
2021/01/29 12:00:02;;;;;;;2.67;1.40;;;9.90;93.70;;;;;;5070964;28;20682;-82
2021/01/29 12:02:32;;;;;;;4.00;1.10;;;9.90;93.70;;;;;;5065441;28;20668;-85
2021/01/29 12:05:24;;;;;;;1.23;1.13;;;9.90;93.40;;;;;;5052506;28;20999;-84
2021/01/29 12:08:03;;;;;;;2.90;0.97;;;9.90;93.20;;;;;;5052698;28;20626;-82
2021/01/29 12:10:38;;;;;;;2.87;0.90;;;9.90;92.80;;;;;;5066737;28;20625;-84
2021/01/29 12:13:12;;;;;;;3.93;1.67;;;9.80;93.00;;;;;;5070070;28;20950;-83
2021/01/29 12:15:45;;;;;;;1.60;0.93;;;9.80;93.40;;;;;;5071744;28;20597;-82
2021/01/29 12:18:14;;;;;;;2.87;1.17;;;9.90;93.40;;;;;;5051753;28;20617;-82
2021/01/29 12:20:43;;;;;;;3.53;0.90;;;9.90;92.90;;;;;;5062416;28;20629;-85
2021/01/29 12:23:28;;;;;;;4.57;1.57;;;9.90;92.30;;;;;;5054056;28;20684;-82
2021/01/29 12:26:19;;;;;;;2.60;1.03;;;9.90;92.30;;;;;;5052258;28;20602;-82
2021/01/29 12:29:05;;;;;;;2.13;1.20;;;9.90;92.10;;;;;;5072104;28;20862;-84
2021/01/29 12:31:44;;;;;;;1.83;0.90;;;9.90;91.40;;;;;;5062787;28;21172;-84
2021/01/29 12:34:23;;;;;;;4.20;1.40;;;10.10;91.30;;;;;;5059304;28;20642;-84
2021/01/29 12:37:01;;;;;;;1.73;1.30;;;10.00;91.10;;;;;;5076548;28;21241;-82
2021/01/29 12:39:33;;;;;;;4.63;1.80;;;10.00;91.00;;;;;;5074820;28;20674;-83
2021/01/29 12:42:09;;;;;;;2.93;1.20;;;10.10;91.40;;;;;;5063544;28;20630;-82
2021/01/29 12:44:43;;;;;;;3.30;1.90;;;10.20;91.80;;;;;;5057399;28;20610;-84
2021/01/29 12:47:21;;;;;;;2.20;1.20;;;10.30;91.40;;;;;;5072567;28;20628;-84
2021/01/29 12:49:57;;;;;;;4.63;1.73;;;10.20;91.20;;;;;;5077108;28;20624;-84
2021/01/29 12:52:28;;;;;;;4.63;1.67;;;10.00;92.10;;;;;;5075654;28;20601;-85
2021/01/29 12:55:02;;;;;;;3.07;1.03;;;10.00;92.10;;;;;;5075985;28;20661;-85
2021/01/29 12:57:32;;;;;;;2.00;1.23;;;10.00;92.20;;;;;;5077621;28;20612;-85
2021/01/29 13:00:13;;;;;;;1.90;0.93;;;10.10;92.10;;;;;;5057766;28;20634;-80
2021/01/29 13:03:06;;;;;;;2.67;1.00;;;10.20;91.80;;;;;;5069775;28;20664;-85
2021/01/29 13:05:52;;;;;;;0.73;0.60;;;10.20;92.10;;;;;;5071680;28;20617;-84
2021/01/29 13:08:44;;;;;;;3.17;1.50;;;10.00;92.00;;;;;;5077792;28;20644;-84
2021/01/29 13:11:27;;;;;;;3.03;1.00;;;10.00;92.20;;;;;;5064155;28;20613;-84
2021/01/29 13:14:07;;;;;;;1.17;1.07;;;10.10;92.70;;;;;;5066552;28;20649;-84
2021/01/29 13:16:40;;;;;;;0.90;0.50;;;9.90;93.60;;;;;;5063177;28;20610;-84
2021/01/29 13:19:20;;;;;;;0.93;0.73;;;9.70;93.40;;;;;;5067254;28;20621;-84
2021/01/29 13:21:50;;;;;;;1.80;0.63;;;9.80;94.00;;;;;;5076217;28;20662;-84
2021/01/29 13:24:21;;;;;;;1.60;0.80;;;9.70;93.50;;;;;;5074365;28;20613;-85
2021/01/29 13:26:48;;;;;;;0.70;0.50;;;9.50;94.10;;;;;;5056951;28;20622;-83
2021/01/29 13:29:24;;;;;;;0.70;0.53;;;9.40;94.30;;;;;;5056948;28;20626;-84
2021/01/29 13:31:54;;;;;;;1.33;0.80;;;9.40;94.60;;;;;;5056902;28;20636;-85
2021/01/29 13:34:22;;;;;;;0.60;0.40;;;9.60;94.70;;;;;;5070503;28;20710;-84
2021/01/29 13:37:02;;;;;;;0.70;0.40;;;9.70;94.30;;;;;;5060379;28;20688;-83
2021/01/29 13:39:31;;;;;;;0.70;0.60;;;9.60;93.80;;;;;;5057436;28;20622;-84
2021/01/29 13:42:00;;;;;;;1.43;1.17;;;9.60;94.40;;;;;;5076047;28;20622;-84
2021/01/29 13:44:34;;;;;;;0.97;0.60;;;9.60;94.30;;;;;;5065786;28;20610;-84
2021/01/29 13:47:02;;;;;;;0.77;0.77;;;9.70;94.10;;;;;;5068135;28;21224;-84
2021/01/29 13:49:35;;;;;;;1.23;0.60;;;9.80;93.90;;;;;;5056784;28;20641;-84
2021/01/29 13:52:20;;;;;;;0.60;0.50;;;10.10;93.10;;;;;;5068548;28;20645;-84
2021/01/29 13:54:48;;;;;;;0.87;0.87;;;10.20;93.40;;;;;;5070620;28;20638;-85
2021/01/29 13:57:24;;;;;;;1.47;1.10;;;10.40;93.00;;;;;;5073957;28;20644;-84